sensor_id;sensor_type;location;lat;lon;timestamp;P1;durP1;ratioP1;P2;durP2;ratioP2
41966;SDS011;27656;53.068;8.818;2023-07-31T00:01:12;5.33;;;2.60;;
41966;SDS011;27656;53.068;8.818;2023-07-31T00:03:38;8.20;;;2.83;;
41966;SDS011;27656;53.068;8.818;2023-07-31T00:06:05;8.67;;;2.90;;
41966;SDS011;27656;53.068;8.818;2023-07-31T00:08:31;6.00;;;3.00;;
41966;SDS011;27656;53.068;8.818;2023-07-31T00:10:58;8.60;;;3.27;;
41966;SDS011;27656;53.068;8.818;2023-07-31T00:13:24;8.77;;;2.60;;
41966;SDS011;27656;53.068;8.818;2023-07-31T00:15:51;6.43;;;2.40;;
41966;SDS011;27656;53.068;8.818;2023-07-31T00:18:17;7.53;;;2.90;;
41966;SDS011;27656;53.068;8.818;2023-07-31T00:20:44;7.93;;;2.43;;
41966;SDS011;27656;53.068;8.818;2023-07-31T00:23:10;6.07;;;2.23;;
41966;SDS011;27656;53.068;8.818;2023-07-31T00:25:37;6.93;;;2.87;;
41966;SDS011;27656;53.068;8.818;2023-07-31T00:28:03;3.30;;;2.10;;
41966;SDS011;27656;53.068;8.818;2023-07-31T00:30:30;4.63;;;2.47;;
41966;SDS011;27656;53.068;8.818;2023-07-31T00:32:56;4.83;;;2.50;;
41966;SDS011;27656;53.068;8.818;2023-07-31T00:35:23;8.63;;;2.97;;
41966;SDS011;27656;53.068;8.818;2023-07-31T00:37:49;5.80;;;2.50;;
41966;SDS011;27656;53.068;8.818;2023-07-31T00:40:16;5.27;;;2.43;;
41966;SDS011;27656;53.068;8.818;2023-07-31T00:42:42;11.87;;;3.03;;
41966;SDS011;27656;53.068;8.818;2023-07-31T00:45:09;8.40;;;2.40;;
41966;SDS011;27656;53.068;8.818;2023-07-31T00:47:36;6.13;;;2.80;;
41966;SDS011;27656;53.068;8.818;2023-07-31T00:50:03;10.40;;;2.70;;
41966;SDS011;27656;53.068;8.818;2023-07-31T00:52:29;9.97;;;3.20;;
41966;SDS011;27656;53.068;8.818;2023-07-31T00:54:56;7.00;;;2.83;;
41966;SDS011;27656;53.068;8.818;2023-07-31T00:57:23;10.37;;;2.87;;
41966;SDS011;27656;53.068;8.818;2023-07-31T00:59:49;5.23;;;2.60;;
41966;SDS011;27656;53.068;8.818;2023-07-31T01:02:15;6.63;;;2.50;;
41966;SDS011;27656;53.068;8.818;2023-07-31T01:04:42;5.83;;;2.53;;
41966;SDS011;27656;53.068;8.818;2023-07-31T01:07:20;12.87;;;4.30;;
41966;SDS011;27656;53.068;8.818;2023-07-31T01:10:00;10.30;;;3.20;;
41966;SDS011;27656;53.068;8.818;2023-07-31T01:12:28;5.70;;;2.60;;
41966;SDS011;27656;53.068;8.818;2023-07-31T01:17:27;8.17;;;2.77;;
41966;SDS011;27656;53.068;8.818;2023-07-31T01:19:54;3.93;;;2.50;;
41966;SDS011;27656;53.068;8.818;2023-07-31T01:22:34;9.07;;;2.83;;
41966;SDS011;27656;53.068;8.818;2023-07-31T01:28:27;8.07;;;2.40;;
41966;SDS011;27656;53.068;8.818;2023-07-31T01:31:18;7.00;;;2.30;;
41966;SDS011;27656;53.068;8.818;2023-07-31T01:33:48;5.90;;;2.60;;
41966;SDS011;27656;53.068;8.818;2023-07-31T01:36:16;5.97;;;2.13;;
41966;SDS011;27656;53.068;8.818;2023-07-31T01:38:43;4.87;;;2.60;;
41966;SDS011;27656;53.068;8.818;2023-07-31T01:41:09;4.93;;;2.23;;
41966;SDS011;27656;53.068;8.818;2023-07-31T01:43:36;4.77;;;2.17;;
41966;SDS011;27656;53.068;8.818;2023-07-31T01:46:02;5.77;;;2.50;;
41966;SDS011;27656;53.068;8.818;2023-07-31T01:48:29;3.83;;;2.63;;
41966;SDS011;27656;53.068;8.818;2023-07-31T01:51:01;4.47;;;2.57;;
41966;SDS011;27656;53.068;8.818;2023-07-31T01:53:29;6.43;;;2.53;;
41966;SDS011;27656;53.068;8.818;2023-07-31T01:55:57;7.93;;;2.37;;
41966;SDS011;27656;53.068;8.818;2023-07-31T01:58:24;4.30;;;2.37;;
41966;SDS011;27656;53.068;8.818;2023-07-31T02:00:50;3.77;;;2.30;;
41966;SDS011;27656;53.068;8.818;2023-07-31T02:03:17;4.93;;;2.50;;
41966;SDS011;27656;53.068;8.818;2023-07-31T02:05:44;3.20;;;2.20;;
41966;SDS011;27656;53.068;8.818;2023-07-31T02:08:11;6.70;;;2.40;;
41966;SDS011;27656;53.068;8.818;2023-07-31T02:10:38;4.67;;;2.40;;
41966;SDS011;27656;53.068;8.818;2023-07-31T02:13:05;3.33;;;2.20;;
41966;SDS011;27656;53.068;8.818;2023-07-31T02:15:31;5.23;;;2.13;;
41966;SDS011;27656;53.068;8.818;2023-07-31T02:17:58;3.97;;;2.40;;
41966;SDS011;27656;53.068;8.818;2023-07-31T02:20:24;4.33;;;2.30;;
41966;SDS011;27656;53.068;8.818;2023-07-31T02:22:51;7.00;;;2.50;;
41966;SDS011;27656;53.068;8.818;2023-07-31T02:25:18;4.70;;;2.70;;
41966;SDS011;27656;53.068;8.818;2023-07-31T02:27:44;4.63;;;2.50;;
41966;SDS011;27656;53.068;8.818;2023-07-31T02:30:11;4.20;;;2.80;;
41966;SDS011;27656;53.068;8.818;2023-07-31T02:32:37;5.43;;;2.67;;
41966;SDS011;27656;53.068;8.818;2023-07-31T02:35:04;3.37;;;2.43;;
41966;SDS011;27656;53.068;8.818;2023-07-31T02:37:31;3.97;;;2.80;;
41966;SDS011;27656;53.068;8.818;2023-07-31T02:39:57;5.47;;;2.90;;
41966;SDS011;27656;53.068;8.818;2023-07-31T02:42:23;6.10;;;2.67;;
41966;SDS011;27656;53.068;8.818;2023-07-31T02:44:50;4.53;;;3.00;;
41966;SDS011;27656;53.068;8.818;2023-07-31T02:47:22;5.20;;;2.80;;
41966;SDS011;27656;53.068;8.818;2023-07-31T02:49:49;5.87;;;2.70;;
41966;SDS011;27656;53.068;8.818;2023-07-31T02:52:15;6.07;;;3.10;;
41966;SDS011;27656;53.068;8.818;2023-07-31T02:54:41;3.73;;;3.00;;
41966;SDS011;27656;53.068;8.818;2023-07-31T02:57:08;9.67;;;3.10;;
41966;SDS011;27656;53.068;8.818;2023-07-31T02:59:34;4.80;;;2.77;;
41966;SDS011;27656;53.068;8.818;2023-07-31T03:02:01;8.40;;;3.00;;
41966;SDS011;27656;53.068;8.818;2023-07-31T03:04:27;4.73;;;3.03;;
41966;SDS011;27656;53.068;8.818;2023-07-31T03:06:54;3.87;;;2.90;;
41966;SDS011;27656;53.068;8.818;2023-07-31T03:09:20;5.47;;;3.20;;
41966;SDS011;27656;53.068;8.818;2023-07-31T03:11:47;3.63;;;2.83;;
41966;SDS011;27656;53.068;8.818;2023-07-31T03:14:13;7.37;;;2.83;;
41966;SDS011;27656;53.068;8.818;2023-07-31T03:16:43;5.20;;;3.03;;
41966;SDS011;27656;53.068;8.818;2023-07-31T03:19:09;7.70;;;3.13;;
41966;SDS011;27656;53.068;8.818;2023-07-31T03:21:36;4.97;;;3.10;;
41966;SDS011;27656;53.068;8.818;2023-07-31T03:24:02;3.20;;;2.87;;
41966;SDS011;27656;53.068;8.818;2023-07-31T03:26:31;4.73;;;2.60;;
41966;SDS011;27656;53.068;8.818;2023-07-31T03:28:58;3.67;;;2.70;;
41966;SDS011;27656;53.068;8.818;2023-07-31T03:31:24;4.70;;;2.83;;
41966;SDS011;27656;53.068;8.818;2023-07-31T03:33:51;5.93;;;3.03;;
41966;SDS011;27656;53.068;8.818;2023-07-31T03:36:17;4.33;;;2.90;;
41966;SDS011;27656;53.068;8.818;2023-07-31T03:38:44;3.67;;;2.67;;
41966;SDS011;27656;53.068;8.818;2023-07-31T03:41:10;4.20;;;2.80;;
41966;SDS011;27656;53.068;8.818;2023-07-31T03:43:37;3.63;;;3.00;;
41966;SDS011;27656;53.068;8.818;2023-07-31T03:46:03;3.53;;;2.80;;
41966;SDS011;27656;53.068;8.818;2023-07-31T03:48:30;4.40;;;2.77;;
41966;SDS011;27656;53.068;8.818;2023-07-31T03:50:57;4.13;;;2.90;;
41966;SDS011;27656;53.068;8.818;2023-07-31T03:53:23;5.10;;;3.50;;
41966;SDS011;27656;53.068;8.818;2023-07-31T03:55:50;4.17;;;3.33;;
41966;SDS011;27656;53.068;8.818;2023-07-31T03:58:16;4.47;;;2.93;;
41966;SDS011;27656;53.068;8.818;2023-07-31T04:00:43;4.73;;;3.40;;
41966;SDS011;27656;53.068;8.818;2023-07-31T04:03:09;5.67;;;3.30;;
41966;SDS011;27656;53.068;8.818;2023-07-31T04:05:37;3.23;;;2.93;;
41966;SDS011;27656;53.068;8.818;2023-07-31T04:08:05;3.87;;;3.30;;
41966;SDS011;27656;53.068;8.818;2023-07-31T04:10:32;5.33;;;3.20;;
41966;SDS011;27656;53.068;8.818;2023-07-31T04:12:59;3.87;;;3.10;;
41966;SDS011;27656;53.068;8.818;2023-07-31T04:15:29;6.27;;;3.47;;
41966;SDS011;27656;53.068;8.818;2023-07-31T04:17:55;5.37;;;3.60;;
41966;SDS011;27656;53.068;8.818;2023-07-31T04:20:22;4.63;;;3.10;;
41966;SDS011;27656;53.068;8.818;2023-07-31T04:22:48;4.57;;;3.13;;
41966;SDS011;27656;53.068;8.818;2023-07-31T04:25:15;4.70;;;3.50;;
41966;SDS011;27656;53.068;8.818;2023-07-31T04:27:42;6.40;;;3.20;;
41966;SDS011;27656;53.068;8.818;2023-07-31T04:30:08;5.30;;;3.43;;
41966;SDS011;27656;53.068;8.818;2023-07-31T04:32:35;5.70;;;3.33;;
41966;SDS011;27656;53.068;8.818;2023-07-31T04:35:02;4.97;;;3.30;;
41966;SDS011;27656;53.068;8.818;2023-07-31T04:37:28;4.07;;;3.00;;
41966;SDS011;27656;53.068;8.818;2023-07-31T04:39:55;4.50;;;3.10;;
41966;SDS011;27656;53.068;8.818;2023-07-31T04:42:21;3.57;;;2.80;;
41966;SDS011;27656;53.068;8.818;2023-07-31T04:44:48;4.93;;;2.87;;
41966;SDS011;27656;53.068;8.818;2023-07-31T04:47:15;3.53;;;2.80;;
41966;SDS011;27656;53.068;8.818;2023-07-31T04:49:41;3.83;;;2.63;;
41966;SDS011;27656;53.068;8.818;2023-07-31T04:52:08;4.70;;;2.80;;
41966;SDS011;27656;53.068;8.818;2023-07-31T04:54:34;3.17;;;2.63;;
41966;SDS011;27656;53.068;8.818;2023-07-31T04:57:00;3.80;;;2.77;;
41966;SDS011;27656;53.068;8.818;2023-07-31T04:59:27;3.80;;;2.67;;
41966;SDS011;27656;53.068;8.818;2023-07-31T05:01:53;4.43;;;2.47;;
41966;SDS011;27656;53.068;8.818;2023-07-31T05:04:20;2.67;;;2.20;;
41966;SDS011;27656;53.068;8.818;2023-07-31T05:06:47;2.73;;;2.20;;
41966;SDS011;27656;53.068;8.818;2023-07-31T05:09:13;3.00;;;2.47;;
41966;SDS011;27656;53.068;8.818;2023-07-31T05:11:40;2.30;;;2.00;;
41966;SDS011;27656;53.068;8.818;2023-07-31T05:14:09;2.93;;;2.03;;
41966;SDS011;27656;53.068;8.818;2023-07-31T05:16:35;3.87;;;2.00;;
41966;SDS011;27656;53.068;8.818;2023-07-31T05:19:02;2.83;;;2.10;;
41966;SDS011;27656;53.068;8.818;2023-07-31T05:21:28;3.27;;;1.60;;
41966;SDS011;27656;53.068;8.818;2023-07-31T05:23:55;1.77;;;1.30;;
41966;SDS011;27656;53.068;8.818;2023-07-31T05:26:21;2.07;;;1.50;;
41966;SDS011;27656;53.068;8.818;2023-07-31T05:28:48;1.47;;;1.37;;
41966;SDS011;27656;53.068;8.818;2023-07-31T05:31:15;1.10;;;1.00;;
41966;SDS011;27656;53.068;8.818;2023-07-31T05:33:41;2.53;;;1.20;;
41966;SDS011;27656;53.068;8.818;2023-07-31T05:36:08;2.00;;;1.40;;
41966;SDS011;27656;53.068;8.818;2023-07-31T05:38:35;4.80;;;1.30;;
41966;SDS011;27656;53.068;8.818;2023-07-31T05:41:02;1.70;;;1.20;;
41966;SDS011;27656;53.068;8.818;2023-07-31T05:43:28;2.43;;;1.10;;
41966;SDS011;27656;53.068;8.818;2023-07-31T05:45:55;1.67;;;1.17;;
41966;SDS011;27656;53.068;8.818;2023-07-31T05:48:21;1.20;;;0.90;;
41966;SDS011;27656;53.068;8.818;2023-07-31T05:50:48;2.03;;;1.20;;
41966;SDS011;27656;53.068;8.818;2023-07-31T05:53:14;1.50;;;1.10;;
41966;SDS011;27656;53.068;8.818;2023-07-31T05:55:41;1.20;;;0.90;;
41966;SDS011;27656;53.068;8.818;2023-07-31T05:58:07;1.03;;;0.90;;
41966;SDS011;27656;53.068;8.818;2023-07-31T06:00:34;1.63;;;1.53;;
41966;SDS011;27656;53.068;8.818;2023-07-31T06:03:00;2.30;;;1.10;;
41966;SDS011;27656;53.068;8.818;2023-07-31T06:05:27;2.00;;;1.10;;
41966;SDS011;27656;53.068;8.818;2023-07-31T06:07:56;1.33;;;1.00;;
41966;SDS011;27656;53.068;8.818;2023-07-31T06:10:23;1.27;;;1.07;;
41966;SDS011;27656;53.068;8.818;2023-07-31T06:12:50;2.40;;;1.37;;
41966;SDS011;27656;53.068;8.818;2023-07-31T06:15:16;1.63;;;1.20;;
41966;SDS011;27656;53.068;8.818;2023-07-31T06:17:45;2.00;;;1.20;;
41966;SDS011;27656;53.068;8.818;2023-07-31T06:20:12;2.37;;;1.50;;
41966;SDS011;27656;53.068;8.818;2023-07-31T06:22:38;1.30;;;1.20;;
41966;SDS011;27656;53.068;8.818;2023-07-31T06:25:05;1.30;;;1.20;;
41966;SDS011;27656;53.068;8.818;2023-07-31T06:27:31;2.13;;;1.30;;
41966;SDS011;27656;53.068;8.818;2023-07-31T06:29:58;2.27;;;1.40;;
41966;SDS011;27656;53.068;8.818;2023-07-31T06:32:24;2.03;;;1.40;;
41966;SDS011;27656;53.068;8.818;2023-07-31T06:34:51;1.83;;;1.60;;
41966;SDS011;27656;53.068;8.818;2023-07-31T06:37:18;5.17;;;1.50;;
41966;SDS011;27656;53.068;8.818;2023-07-31T06:39:44;1.47;;;1.37;;
41966;SDS011;27656;53.068;8.818;2023-07-31T06:42:11;2.23;;;1.43;;
41966;SDS011;27656;53.068;8.818;2023-07-31T06:44:37;1.60;;;1.43;;
41966;SDS011;27656;53.068;8.818;2023-07-31T06:47:04;2.13;;;1.40;;
41966;SDS011;27656;53.068;8.818;2023-07-31T06:49:30;1.37;;;1.27;;
41966;SDS011;27656;53.068;8.818;2023-07-31T06:51:57;1.50;;;1.27;;
41966;SDS011;27656;53.068;8.818;2023-07-31T06:54:23;1.47;;;1.37;;
41966;SDS011;27656;53.068;8.818;2023-07-31T06:56:50;1.80;;;1.30;;
41966;SDS011;27656;53.068;8.818;2023-07-31T06:59:16;1.37;;;1.07;;
41966;SDS011;27656;53.068;8.818;2023-07-31T07:01:43;1.00;;;0.80;;
41966;SDS011;27656;53.068;8.818;2023-07-31T07:04:09;1.77;;;1.17;;
41966;SDS011;27656;53.068;8.818;2023-07-31T07:06:36;1.43;;;1.07;;
41966;SDS011;27656;53.068;8.818;2023-07-31T07:09:03;1.70;;;0.90;;
41966;SDS011;27656;53.068;8.818;2023-07-31T07:11:32;2.47;;;1.00;;
41966;SDS011;27656;53.068;8.818;2023-07-31T07:13:58;1.40;;;1.10;;
41966;SDS011;27656;53.068;8.818;2023-07-31T07:16:25;2.67;;;0.90;;
41966;SDS011;27656;53.068;8.818;2023-07-31T07:18:51;1.10;;;0.93;;
41966;SDS011;27656;53.068;8.818;2023-07-31T07:21:30;1.87;;;1.13;;
41966;SDS011;27656;53.068;8.818;2023-07-31T07:23:56;1.70;;;1.30;;
41966;SDS011;27656;53.068;8.818;2023-07-31T07:26:23;2.13;;;1.10;;
41966;SDS011;27656;53.068;8.818;2023-07-31T07:28:50;3.37;;;1.40;;
41966;SDS011;27656;53.068;8.818;2023-07-31T07:31:16;1.63;;;1.30;;
41966;SDS011;27656;53.068;8.818;2023-07-31T07:33:43;1.70;;;1.30;;
41966;SDS011;27656;53.068;8.818;2023-07-31T07:36:09;4.17;;;1.37;;
41966;SDS011;27656;53.068;8.818;2023-07-31T07:38:36;5.07;;;1.80;;
41966;SDS011;27656;53.068;8.818;2023-07-31T07:41:04;4.10;;;2.10;;
41966;SDS011;27656;53.068;8.818;2023-07-31T07:43:31;5.13;;;2.13;;
41966;SDS011;27656;53.068;8.818;2023-07-31T07:45:57;4.33;;;2.60;;
41966;SDS011;27656;53.068;8.818;2023-07-31T07:48:24;5.13;;;2.87;;
41966;SDS011;27656;53.068;8.818;2023-07-31T07:50:51;5.50;;;3.27;;
41966;SDS011;27656;53.068;8.818;2023-07-31T07:53:17;7.60;;;3.70;;
41966;SDS011;27656;53.068;8.818;2023-07-31T07:55:44;7.90;;;4.60;;
41966;SDS011;27656;53.068;8.818;2023-07-31T07:58:10;6.37;;;4.20;;
41966;SDS011;27656;53.068;8.818;2023-07-31T08:00:37;10.50;;;4.97;;
41966;SDS011;27656;53.068;8.818;2023-07-31T08:03:04;52.53;;;32.67;;
41966;SDS011;27656;53.068;8.818;2023-07-31T08:05:31;66.43;;;41.50;;
41966;SDS011;27656;53.068;8.818;2023-07-31T08:08:00;16.67;;;7.00;;
41966;SDS011;27656;53.068;8.818;2023-07-31T08:10:27;12.17;;;6.70;;
41966;SDS011;27656;53.068;8.818;2023-07-31T08:12:53;15.83;;;6.90;;
41966;SDS011;27656;53.068;8.818;2023-07-31T08:15:20;14.70;;;6.53;;
41966;SDS011;27656;53.068;8.818;2023-07-31T08:17:46;16.80;;;7.07;;
41966;SDS011;27656;53.068;8.818;2023-07-31T08:20:13;17.00;;;7.50;;
41966;SDS011;27656;53.068;8.818;2023-07-31T08:22:40;16.97;;;8.20;;
41966;SDS011;27656;53.068;8.818;2023-07-31T08:25:06;20.90;;;7.30;;
41966;SDS011;27656;53.068;8.818;2023-07-31T08:27:33;22.03;;;8.90;;
41966;SDS011;27656;53.068;8.818;2023-07-31T08:30:00;17.53;;;8.23;;
41966;SDS011;27656;53.068;8.818;2023-07-31T08:32:26;17.33;;;8.20;;
41966;SDS011;27656;53.068;8.818;2023-07-31T08:34:53;20.83;;;8.47;;
41966;SDS011;27656;53.068;8.818;2023-07-31T08:37:19;18.83;;;8.60;;
41966;SDS011;27656;53.068;8.818;2023-07-31T08:39:46;18.73;;;8.77;;
41966;SDS011;27656;53.068;8.818;2023-07-31T08:42:12;23.27;;;8.37;;
41966;SDS011;27656;53.068;8.818;2023-07-31T08:44:39;17.40;;;8.33;;
41966;SDS011;27656;53.068;8.818;2023-07-31T08:47:05;18.63;;;8.67;;
41966;SDS011;27656;53.068;8.818;2023-07-31T08:49:32;16.87;;;8.87;;
41966;SDS011;27656;53.068;8.818;2023-07-31T08:52:00;17.23;;;8.63;;
41966;SDS011;27656;53.068;8.818;2023-07-31T08:54:28;23.87;;;9.30;;
41966;SDS011;27656;53.068;8.818;2023-07-31T08:56:57;20.93;;;8.60;;
41966;SDS011;27656;53.068;8.818;2023-07-31T08:59:27;17.93;;;9.43;;
41966;SDS011;27656;53.068;8.818;2023-07-31T09:01:57;18.53;;;8.23;;
41966;SDS011;27656;53.068;8.818;2023-07-31T09:04:30;20.37;;;7.80;;
41966;SDS011;27656;53.068;8.818;2023-07-31T09:06:59;19.40;;;8.07;;
41966;SDS011;27656;53.068;8.818;2023-07-31T09:09:30;18.30;;;7.97;;
41966;SDS011;27656;53.068;8.818;2023-07-31T09:11:57;20.83;;;7.53;;
41966;SDS011;27656;53.068;8.818;2023-07-31T09:14:25;19.23;;;7.23;;
41966;SDS011;27656;53.068;8.818;2023-07-31T09:16:53;16.63;;;7.20;;
41966;SDS011;27656;53.068;8.818;2023-07-31T09:19:34;14.40;;;7.00;;
41966;SDS011;27656;53.068;8.818;2023-07-31T09:22:05;17.43;;;6.43;;
41966;SDS011;27656;53.068;8.818;2023-07-31T09:24:32;14.47;;;6.77;;
41966;SDS011;27656;53.068;8.818;2023-07-31T09:27:00;14.57;;;5.87;;
41966;SDS011;27656;53.068;8.818;2023-07-31T09:29:28;11.73;;;5.80;;
41966;SDS011;27656;53.068;8.818;2023-07-31T09:31:56;17.93;;;5.70;;
41966;SDS011;27656;53.068;8.818;2023-07-31T09:34:28;13.03;;;5.80;;
41966;SDS011;27656;53.068;8.818;2023-07-31T09:37:02;12.20;;;5.43;;
41966;SDS011;27656;53.068;8.818;2023-07-31T09:39:29;12.77;;;5.27;;
41966;SDS011;27656;53.068;8.818;2023-07-31T09:41:56;12.00;;;5.40;;
41966;SDS011;27656;53.068;8.818;2023-07-31T09:44:39;11.50;;;5.50;;
41966;SDS011;27656;53.068;8.818;2023-07-31T09:47:24;9.87;;;4.40;;
41966;SDS011;27656;53.068;8.818;2023-07-31T09:49:52;11.77;;;4.57;;
41966;SDS011;27656;53.068;8.818;2023-07-31T09:52:19;8.40;;;4.90;;
41966;SDS011;27656;53.068;8.818;2023-07-31T09:54:45;10.47;;;5.10;;
41966;SDS011;27656;53.068;8.818;2023-07-31T09:57:11;8.37;;;3.87;;
41966;SDS011;27656;53.068;8.818;2023-07-31T09:59:39;9.07;;;4.03;;
41966;SDS011;27656;53.068;8.818;2023-07-31T10:02:06;12.43;;;3.40;;
41966;SDS011;27656;53.068;8.818;2023-07-31T10:04:41;7.20;;;3.43;;
41966;SDS011;27656;53.068;8.818;2023-07-31T10:07:12;7.77;;;3.37;;
41966;SDS011;27656;53.068;8.818;2023-07-31T10:09:40;5.43;;;3.23;;
41966;SDS011;27656;53.068;8.818;2023-07-31T10:12:07;6.47;;;3.33;;
41966;SDS011;27656;53.068;8.818;2023-07-31T10:14:38;7.20;;;4.00;;
41966;SDS011;27656;53.068;8.818;2023-07-31T10:17:07;7.53;;;2.90;;
41966;SDS011;27656;53.068;8.818;2023-07-31T10:19:35;5.60;;;2.93;;
41966;SDS011;27656;53.068;8.818;2023-07-31T10:22:02;7.13;;;2.97;;
41966;SDS011;27656;53.068;8.818;2023-07-31T10:24:29;4.27;;;3.03;;
41966;SDS011;27656;53.068;8.818;2023-07-31T10:26:57;4.60;;;2.47;;
41966;SDS011;27656;53.068;8.818;2023-07-31T10:29:26;6.73;;;2.97;;
41966;SDS011;27656;53.068;8.818;2023-07-31T10:31:53;4.53;;;2.23;;
41966;SDS011;27656;53.068;8.818;2023-07-31T10:34:22;6.83;;;2.87;;
41966;SDS011;27656;53.068;8.818;2023-07-31T10:36:48;6.17;;;2.20;;
41966;SDS011;27656;53.068;8.818;2023-07-31T10:39:34;3.10;;;2.00;;
41966;SDS011;27656;53.068;8.818;2023-07-31T10:42:13;5.23;;;2.10;;
41966;SDS011;27656;53.068;8.818;2023-07-31T10:44:46;3.60;;;2.00;;
41966;SDS011;27656;53.068;8.818;2023-07-31T10:47:16;3.93;;;1.70;;
41966;SDS011;27656;53.068;8.818;2023-07-31T10:49:46;2.77;;;1.70;;
41966;SDS011;27656;53.068;8.818;2023-07-31T10:52:13;4.00;;;1.70;;
41966;SDS011;27656;53.068;8.818;2023-07-31T10:54:40;2.50;;;1.30;;
41966;SDS011;27656;53.068;8.818;2023-07-31T10:57:24;5.20;;;1.47;;
41966;SDS011;27656;53.068;8.818;2023-07-31T10:59:51;2.23;;;1.33;;
41966;SDS011;27656;53.068;8.818;2023-07-31T11:05:40;1.57;;;1.07;;
41966;SDS011;27656;53.068;8.818;2023-07-31T11:10:45;2.70;;;1.17;;
41966;SDS011;27656;53.068;8.818;2023-07-31T11:13:14;2.07;;;1.30;;
41966;SDS011;27656;53.068;8.818;2023-07-31T11:15:40;2.50;;;1.00;;
41966;SDS011;27656;53.068;8.818;2023-07-31T11:18:07;5.43;;;1.03;;
41966;SDS011;27656;53.068;8.818;2023-07-31T11:20:37;2.73;;;0.90;;
41966;SDS011;27656;53.068;8.818;2023-07-31T11:23:07;0.80;;;0.73;;
41966;SDS011;27656;53.068;8.818;2023-07-31T11:25:35;0.93;;;0.70;;
41966;SDS011;27656;53.068;8.818;2023-07-31T11:28:03;0.90;;;0.60;;
41966;SDS011;27656;53.068;8.818;2023-07-31T11:30:31;2.53;;;0.70;;
41966;SDS011;27656;53.068;8.818;2023-07-31T11:32:59;0.70;;;0.70;;
41966;SDS011;27656;53.068;8.818;2023-07-31T11:35:27;1.47;;;0.50;;
41966;SDS011;27656;53.068;8.818;2023-07-31T11:37:53;0.60;;;0.50;;
41966;SDS011;27656;53.068;8.818;2023-07-31T11:40:20;2.00;;;0.50;;
41966;SDS011;27656;53.068;8.818;2023-07-31T11:42:51;0.63;;;0.50;;
41966;SDS011;27656;53.068;8.818;2023-07-31T11:45:18;0.53;;;0.50;;
41966;SDS011;27656;53.068;8.818;2023-07-31T11:47:44;1.50;;;0.70;;
41966;SDS011;27656;53.068;8.818;2023-07-31T11:50:12;1.03;;;0.60;;
41966;SDS011;27656;53.068;8.818;2023-07-31T11:52:40;1.10;;;0.60;;
41966;SDS011;27656;53.068;8.818;2023-07-31T11:55:10;3.17;;;0.40;;
41966;SDS011;27656;53.068;8.818;2023-07-31T11:57:37;0.60;;;0.60;;
41966;SDS011;27656;53.068;8.818;2023-07-31T12:00:07;1.90;;;0.40;;
41966;SDS011;27656;53.068;8.818;2023-07-31T12:02:35;1.27;;;0.60;;
41966;SDS011;27656;53.068;8.818;2023-07-31T12:05:02;0.50;;;0.50;;
41966;SDS011;27656;53.068;8.818;2023-07-31T12:07:42;3.33;;;0.53;;
41966;SDS011;27656;53.068;8.818;2023-07-31T12:10:31;0.50;;;0.50;;
41966;SDS011;27656;53.068;8.818;2023-07-31T12:13:02;0.53;;;0.53;;
41966;SDS011;27656;53.068;8.818;2023-07-31T12:15:37;0.80;;;0.60;;
41966;SDS011;27656;53.068;8.818;2023-07-31T12:20:43;0.80;;;0.60;;
41966;SDS011;27656;53.068;8.818;2023-07-31T12:23:19;1.00;;;0.80;;
41966;SDS011;27656;53.068;8.818;2023-07-31T12:26:33;3.60;;;0.70;;
41966;SDS011;27656;53.068;8.818;2023-07-31T12:28:50;0.60;;;0.60;;
41966;SDS011;27656;53.068;8.818;2023-07-31T12:31:21;0.93;;;0.60;;
41966;SDS011;27656;53.068;8.818;2023-07-31T12:33:49;0.80;;;0.70;;
41966;SDS011;27656;53.068;8.818;2023-07-31T12:36:18;1.43;;;0.70;;
41966;SDS011;27656;53.068;8.818;2023-07-31T12:38:47;1.53;;;0.80;;
41966;SDS011;27656;53.068;8.818;2023-07-31T12:41:15;1.27;;;0.90;;
41966;SDS011;27656;53.068;8.818;2023-07-31T12:43:42;1.57;;;0.80;;
41966;SDS011;27656;53.068;8.818;2023-07-31T12:46:10;5.30;;;1.13;;
41966;SDS011;27656;53.068;8.818;2023-07-31T12:48:38;1.10;;;0.80;;
41966;SDS011;27656;53.068;8.818;2023-07-31T12:51:05;3.43;;;1.17;;
41966;SDS011;27656;53.068;8.818;2023-07-31T12:53:33;1.20;;;1.10;;
41966;SDS011;27656;53.068;8.818;2023-07-31T12:56:00;1.23;;;0.90;;
41966;SDS011;27656;53.068;8.818;2023-07-31T12:58:27;1.20;;;1.10;;
41966;SDS011;27656;53.068;8.818;2023-07-31T13:00:54;0.97;;;0.90;;
41966;SDS011;27656;53.068;8.818;2023-07-31T13:03:20;1.07;;;0.97;;
41966;SDS011;27656;53.068;8.818;2023-07-31T13:05:47;1.50;;;1.10;;
41966;SDS011;27656;53.068;8.818;2023-07-31T13:08:13;1.37;;;1.27;;
41966;SDS011;27656;53.068;8.818;2023-07-31T13:10:42;1.67;;;1.23;;
41966;SDS011;27656;53.068;8.818;2023-07-31T13:13:09;1.00;;;0.90;;
41966;SDS011;27656;53.068;8.818;2023-07-31T13:15:35;3.50;;;1.10;;
41966;SDS011;27656;53.068;8.818;2023-07-31T13:18:02;3.50;;;1.30;;
41966;SDS011;27656;53.068;8.818;2023-07-31T13:20:29;1.40;;;1.20;;
41966;SDS011;27656;53.068;8.818;2023-07-31T13:22:55;2.07;;;1.20;;
41966;SDS011;27656;53.068;8.818;2023-07-31T13:25:21;3.90;;;1.83;;
41966;SDS011;27656;53.068;8.818;2023-07-31T13:27:48;1.57;;;1.33;;
41966;SDS011;27656;53.068;8.818;2023-07-31T13:30:14;1.60;;;1.50;;
41966;SDS011;27656;53.068;8.818;2023-07-31T13:32:41;2.73;;;1.83;;
41966;SDS011;27656;53.068;8.818;2023-07-31T13:35:07;4.17;;;1.67;;
41966;SDS011;27656;53.068;8.818;2023-07-31T13:37:34;2.10;;;1.90;;
41966;SDS011;27656;53.068;8.818;2023-07-31T13:40:01;5.93;;;2.07;;
41966;SDS011;27656;53.068;8.818;2023-07-31T13:42:31;3.30;;;1.90;;
41966;SDS011;27656;53.068;8.818;2023-07-31T13:44:58;4.90;;;2.13;;
41966;SDS011;27656;53.068;8.818;2023-07-31T13:47:24;5.77;;;2.40;;
41966;SDS011;27656;53.068;8.818;2023-07-31T13:49:51;2.97;;;2.33;;
41966;SDS011;27656;53.068;8.818;2023-07-31T13:52:17;5.67;;;2.70;;
41966;SDS011;27656;53.068;8.818;2023-07-31T13:54:44;2.80;;;2.50;;
41966;SDS011;27656;53.068;8.818;2023-07-31T13:57:10;3.37;;;2.50;;
41966;SDS011;27656;53.068;8.818;2023-07-31T13:59:37;2.73;;;2.10;;
41966;SDS011;27656;53.068;8.818;2023-07-31T14:02:03;4.00;;;2.77;;
41966;SDS011;27656;53.068;8.818;2023-07-31T14:04:30;4.53;;;2.57;;
41966;SDS011;27656;53.068;8.818;2023-07-31T14:06:56;3.73;;;2.63;;
41966;SDS011;27656;53.068;8.818;2023-07-31T14:09:23;3.60;;;2.90;;
41966;SDS011;27656;53.068;8.818;2023-07-31T14:11:50;4.57;;;3.70;;
41966;SDS011;27656;53.068;8.818;2023-07-31T14:14:17;4.70;;;3.40;;
41966;SDS011;27656;53.068;8.818;2023-07-31T14:16:44;4.70;;;3.63;;
41966;SDS011;27656;53.068;8.818;2023-07-31T14:19:11;4.40;;;3.53;;
41966;SDS011;27656;53.068;8.818;2023-07-31T14:21:38;5.07;;;3.30;;
41966;SDS011;27656;53.068;8.818;2023-07-31T14:24:04;4.10;;;3.40;;
41966;SDS011;27656;53.068;8.818;2023-07-31T14:26:31;4.60;;;3.73;;
41966;SDS011;27656;53.068;8.818;2023-07-31T14:28:58;5.27;;;3.60;;
41966;SDS011;27656;53.068;8.818;2023-07-31T14:31:24;6.33;;;4.00;;
41966;SDS011;27656;53.068;8.818;2023-07-31T14:33:51;3.93;;;3.53;;
41966;SDS011;27656;53.068;8.818;2023-07-31T14:36:17;7.63;;;4.20;;
41966;SDS011;27656;53.068;8.818;2023-07-31T14:38:43;5.70;;;4.37;;
41966;SDS011;27656;53.068;8.818;2023-07-31T14:41:10;7.93;;;4.70;;
41966;SDS011;27656;53.068;8.818;2023-07-31T14:43:36;6.77;;;4.40;;
41966;SDS011;27656;53.068;8.818;2023-07-31T14:46:03;7.37;;;4.67;;
41966;SDS011;27656;53.068;8.818;2023-07-31T14:48:30;16.93;;;6.37;;
41966;SDS011;27656;53.068;8.818;2023-07-31T14:50:56;8.40;;;4.63;;
41966;SDS011;27656;53.068;8.818;2023-07-31T14:53:23;7.27;;;4.70;;
41966;SDS011;27656;53.068;8.818;2023-07-31T14:55:49;6.67;;;4.67;;
41966;SDS011;27656;53.068;8.818;2023-07-31T14:58:16;7.43;;;5.00;;
41966;SDS011;27656;53.068;8.818;2023-07-31T15:00:43;8.60;;;4.70;;
41966;SDS011;27656;53.068;8.818;2023-07-31T15:03:10;6.27;;;4.90;;